Terminal Aerodrome Forecast
Issued by NWS Shreveport, LA

Home | Current Version | Previous Version | Text Only | Print | Product List | Glossary On
Versions: 1 2 3 4 5 6 7 8 9 10 11 12 13 14 15 16 17 18 19 20 21 22 23 24 25 26 27 28 29 30 31 32 33 34 35
592
FTUS44 KSHV 191149
TAFTXK
TAF
KTXK 191149Z 1912/2012 17012KT P6SM SCT250
      TEMPO 1912/1915 BKN020
     FM191500 18015G25KT P6SM BKN035 BKN060
     FM200000 16014KT P6SM SCT025 OVC050
     FM200600 18014KT P6SM VCSH OVC004=

USA.gov is the U.S. government's official web portal to all federal, state and local government web resources and services.